Time;durP1;ratioP1;P1;durP2;ratioP2;P2;SDS_P1;SDS_P2;PMS_P1;PMS_P2;Temp;Humidity;BMP_temperature;BMP_pressure;BME280_temperature;BME280_humidity;BME280_pressure;Samples;Min_cycle;Max_cycle;Signal;HPM_P1;HPM_P2
2024/01/05 00:01:47;;;;;;;11.10;7.70;;;;;;;-147.86;100.00;-17609.17;105883;1256;61905;-53
2024/01/05 00:04:14;;;;;;;11.10;7.60;;;;;;;-147.86;100.00;-17609.17;105903;1253;60369;-51
2024/01/05 00:06:41;;;;;;;13.30;8.50;;;;;;;-147.86;100.00;-17609.17;105864;1252;73245;-52
2024/01/05 00:09:09;;;;;;;17.30;8.00;;;;;;;-147.86;100.00;-17609.17;105907;1257;64661;-52
2024/01/05 00:11:36;;;;;;;14.20;7.90;;;;;;;-147.86;100.00;-17609.17;105872;1253;72765;-52
2024/01/05 00:14:03;;;;;;;10.80;7.30;;;;;;;-147.86;100.00;-17609.17;105883;1257;61951;-54
2024/01/05 00:16:30;;;;;;;14.00;8.10;;;;;;;-147.86;100.00;-17609.17;105856;1253;60273;-50
2024/01/05 00:18:57;;;;;;;12.80;7.30;;;;;;;-147.86;100.00;-17609.17;105843;1257;72899;-52
2024/01/05 00:21:26;;;;;;;13.30;7.50;;;;;;;-147.86;100.00;-17609.17;105852;1256;64614;-53
2024/01/05 00:24:40;;;;;;;12.80;7.30;;;;;;;-147.86;100.00;-17609.17;102716;1294;600901;-50
2024/01/05 00:27:08;;;;;;;13.80;7.70;;;;;;;-147.86;100.00;-17609.17;105062;1265;61675;-52
2024/01/05 00:29:37;;;;;;;11.10;7.30;;;;;;;-147.86;100.00;-17609.17;104943;1263;59969;-51
2024/01/05 00:32:06;;;;;;;14.20;7.40;;;;;;;-147.86;100.00;-17609.17;104895;1264;72270;-54
2024/01/05 00:34:34;;;;;;;11.50;7.40;;;;;;;-147.86;100.00;-17609.17;104928;1263;63625;-50
2024/01/05 00:37:03;;;;;;;16.10;7.80;;;;;;;-147.86;100.00;-17609.17;104918;1266;71380;-53
2024/01/05 00:39:31;;;;;;;11.60;7.70;;;;;;;-147.86;100.00;-17609.17;104894;1269;238377;-54
2024/01/05 00:42:01;;;;;;;14.10;8.30;;;;;;;-147.86;100.00;-17609.17;104885;1267;59270;-53
2024/01/05 00:44:31;;;;;;;14.90;8.20;;;;;;;-147.86;100.00;-17609.17;104901;1261;71207;-53
2024/01/05 00:47:00;;;;;;;12.20;8.20;;;;;;;-147.86;100.00;-17609.17;105175;1263;63299;-54
2024/01/05 00:49:27;;;;;;;14.10;10.00;;;;;;;-147.86;100.00;-17609.17;105170;1263;71437;-59
2024/01/05 00:51:56;;;;;;;14.20;8.90;;;;;;;-147.86;100.00;-17609.17;105106;1264;59701;-54
2024/01/05 00:54:25;;;;;;;15.90;8.60;;;;;;;-147.86;100.00;-17609.17;105180;1265;59506;-55
2024/01/05 00:56:53;;;;;;;11.80;8.00;;;;;;;-147.86;100.00;-17609.17;105143;1263;71788;-53
2024/01/05 00:59:20;;;;;;;13.60;8.70;;;;;;;-147.86;100.00;-17609.17;105136;1263;63121;-49
2024/01/05 01:01:48;;;;;;;11.40;7.90;;;;;;;-147.86;100.00;-17609.17;105107;1267;72645;-49
2024/01/05 01:04:16;;;;;;;13.70;9.00;;;;;;;-147.86;100.00;-17609.17;105155;1264;61164;-51
2024/01/05 01:06:45;;;;;;;14.10;9.50;;;;;;;-147.86;100.00;-17609.17;105209;1264;59638;-53
2024/01/05 01:09:13;;;;;;;11.40;8.10;;;;;;;-147.86;100.00;-17609.17;105205;1263;71837;-51
2024/01/05 01:11:42;;;;;;;14.80;9.90;;;;;;;-147.86;100.00;-17609.17;105143;1263;63440;-51
2024/01/05 01:14:10;;;;;;;14.40;9.10;;;;;;;-147.86;100.00;-17609.17;105117;1266;71568;-51
2024/01/05 01:16:38;;;;;;;15.80;9.40;;;;;;;-147.86;100.00;-17609.17;105147;1267;61260;-53
2024/01/05 01:19:06;;;;;;;16.50;9.40;;;;;;;-147.86;100.00;-17609.17;105602;1260;59624;-54
2024/01/05 01:21:34;;;;;;;13.80;9.50;;;;;;;-147.86;100.00;-17609.17;105616;1257;71828;-54
2024/01/05 01:24:03;;;;;;;15.40;9.40;;;;;;;-147.86;100.00;-17609.17;105561;1257;63128;-52
2024/01/05 01:26:30;;;;;;;14.90;9.10;;;;;;;-147.86;100.00;-17609.17;105623;1257;70305;-53
2024/01/05 01:28:58;;;;;;;18.70;9.60;;;;;;;-147.86;100.00;-17609.17;105579;1257;59821;-51
2024/01/05 01:31:28;;;;;;;16.80;9.90;;;;;;;-147.86;100.00;-17609.17;105547;1261;60004;-52
2024/01/05 01:33:56;;;;;;;16.60;8.90;;;;;;;-147.86;100.00;-17609.17;105658;1257;73070;-53
2024/01/05 01:36:24;;;;;;;13.80;8.80;;;;;;;-147.86;100.00;-17609.17;105597;1259;64362;-50
2024/01/05 01:38:52;;;;;;;13.70;9.30;;;;;;;-147.86;100.00;-17609.17;105541;1257;71423;-53
2024/01/05 01:41:20;;;;;;;15.00;9.00;;;;;;;-147.86;100.00;-17609.17;105550;1257;59760;-51
2024/01/05 01:43:48;;;;;;;15.00;9.20;;;;;;;-147.86;100.00;-17609.17;105585;1256;60028;-53
2024/01/05 01:46:19;;;;;;;13.90;9.30;;;;;;;-147.86;100.00;-17609.17;105881;1250;71785;-52
2024/01/05 01:48:47;;;;;;;13.20;9.50;;;;;;;-147.86;100.00;-17609.17;105817;1250;64366;-51
2024/01/05 01:51:15;;;;;;;19.90;9.60;;;;;;;-147.86;100.00;-17609.17;105869;1254;71375;-52
2024/01/05 01:53:44;;;;;;;14.70;9.30;;;;;;;-147.86;100.00;-17609.17;105858;1253;60453;-51
2024/01/05 01:56:11;;;;;;;18.10;9.90;;;;;;;-147.86;100.00;-17609.17;105877;1250;60052;-50
2024/01/05 01:58:39;;;;;;;17.30;10.00;;;;;;;-147.86;100.00;-17609.17;105911;1257;73001;-52
2024/01/05 02:01:07;;;;;;;14.90;9.80;;;;;;;-147.86;100.00;-17609.17;105944;1251;63202;-53
2024/01/05 02:03:34;;;;;;;19.80;10.20;;;;;;;-147.86;100.00;-17609.17;105674;1252;71257;-53
2024/01/05 02:06:03;;;;;;;18.00;10.00;;;;;;;-147.86;100.00;-17609.17;105671;1253;59717;-54
2024/01/05 02:08:30;;;;;;;18.70;10.60;;;;;;;-147.86;100.00;-17609.17;105915;1256;59532;-54
2024/01/05 02:10:58;;;;;;;14.80;9.90;;;;;;;-147.86;100.00;-17609.17;105854;1250;71783;-50
2024/01/05 02:13:26;;;;;;;18.10;10.40;;;;;;;-147.86;100.00;-17609.17;105901;1250;63526;-50
2024/01/05 02:15:53;;;;;;;15.70;10.20;;;;;;;-147.86;100.00;-17609.17;105875;1256;72407;-49
2024/01/05 02:18:21;;;;;;;17.40;11.40;;;;;;;-147.86;100.00;-17609.17;105859;1250;61710;-51
2024/01/05 02:20:49;;;;;;;16.80;9.40;;;;;;;-147.86;100.00;-17609.17;105910;1258;59482;-53
2024/01/05 02:23:31;;;;;;;14.70;10.10;;;;;;;-147.86;100.00;-17609.17;105889;1251;73117;-50
2024/01/05 02:25:58;;;;;;;19.60;10.60;;;;;;;-147.86;100.00;-17609.17;105723;1250;63557;-51
2024/01/05 02:28:26;;;;;;;15.70;9.60;;;;;;;-147.86;100.00;-17609.17;105884;1257;71360;-51
2024/01/05 02:30:55;;;;;;;20.10;9.90;;;;;;;-147.86;100.00;-17609.17;105870;1253;60154;-48
2024/01/05 02:33:23;;;;;;;19.80;9.60;;;;;;;-147.86;100.00;-17609.17;105907;1250;59983;-53
2024/01/05 02:35:51;;;;;;;14.80;9.50;;;;;;;-147.86;100.00;-17609.17;105929;1250;71753;-53
2024/01/05 02:38:19;;;;;;;17.20;10.30;;;;;;;-147.86;100.00;-17609.17;105934;1251;63169;-52
2024/01/05 02:40:47;;;;;;;17.00;10.10;;;;;;;-147.86;100.00;-17609.17;105877;1253;71554;-50
2024/01/05 02:43:15;;;;;;;15.20;10.20;;;;;;;-147.86;100.00;-17609.17;105845;1253;61763;-51
2024/01/05 02:45:43;;;;;;;19.90;9.80;;;;;;;-147.86;100.00;-17609.17;105894;1257;59714;-49
2024/01/05 02:48:11;;;;;;;16.80;9.20;;;;;;;-147.86;100.00;-17609.17;105912;1257;72998;-52
2024/01/05 02:50:38;;;;;;;19.50;10.30;;;;;;;-147.86;100.00;-17609.17;105881;1250;63078;-52
2024/01/05 02:53:06;;;;;;;17.40;9.10;;;;;;;-147.86;100.00;-17609.17;105846;1257;71372;-52
2024/01/05 02:55:34;;;;;;;16.90;8.90;;;;;;;-147.86;100.00;-17609.17;105854;1253;60742;-52
2024/01/05 02:58:02;;;;;;;14.70;9.50;;;;;;;-147.86;100.00;-17609.17;105865;1258;59974;-50
2024/01/05 03:00:30;;;;;;;20.10;9.20;;;;;;;-147.86;100.00;-17609.17;105906;1250;71625;-54
2024/01/05 03:02:58;;;;;;;15.00;7.90;;;;;;;-147.86;100.00;-17609.17;105867;1257;63150;-52
2024/01/05 03:05:25;;;;;;;13.60;9.10;;;;;;;-147.86;100.00;-17609.17;105849;1255;71425;-50
2024/01/05 03:07:54;;;;;;;12.80;8.10;;;;;;;-147.86;100.00;-17609.17;105919;1254;59692;-52
2024/01/05 03:10:22;;;;;;;15.50;9.20;;;;;;;-147.86;100.00;-17609.17;105927;1256;59845;-51
2024/01/05 03:12:51;;;;;;;12.20;8.50;;;;;;;-147.86;100.00;-17609.17;105812;1258;72099;-52
2024/01/05 03:15:19;;;;;;;15.50;8.80;;;;;;;-147.86;100.00;-17609.17;105859;1251;63109;-50
2024/01/05 03:17:47;;;;;;;15.70;8.90;;;;;;;-147.86;100.00;-17609.17;105894;1254;71397;-49
2024/01/05 03:20:17;;;;;;;14.30;8.50;;;;;;;-147.86;100.00;-17609.17;105880;1250;61674;-50
2024/01/05 03:22:45;;;;;;;14.10;7.70;;;;;;;-147.86;100.00;-17609.17;105918;1256;59525;-53
2024/01/05 03:25:13;;;;;;;17.90;8.60;;;;;;;-147.86;100.00;-17609.17;105909;1257;73073;-53
2024/01/05 03:27:41;;;;;;;18.20;8.20;;;;;;;-147.86;100.00;-17609.17;105882;1259;64373;-52
2024/01/05 03:30:09;;;;;;;12.00;8.10;;;;;;;-147.86;100.00;-17609.17;105853;1251;71684;-53
2024/01/05 03:32:37;;;;;;;14.50;7.80;;;;;;;-147.86;100.00;-17609.17;105907;1250;60778;-50
2024/01/05 03:35:05;;;;;;;15.20;7.70;;;;;;;-147.86;100.00;-17609.17;105901;1257;59629;-54
2024/01/05 03:54:54;;;;;;;12.30;6.70;;;;;;;-147.86;100.00;-17609.17;103375;1283;600247;-50
2024/01/05 03:57:23;;;;;;;11.80;6.40;;;;;;;-147.86;100.00;-17609.17;104893;1269;60398;-53
2024/01/05 03:59:51;;;;;;;13.50;7.30;;;;;;;-147.86;100.00;-17609.17;104882;1269;59969;-51
2024/01/05 04:02:19;;;;;;;11.50;6.50;;;;;;;-147.86;100.00;-17609.17;105183;1267;71087;-51
2024/01/05 04:04:46;;;;;;;10.70;6.20;;;;;;;-147.86;100.00;-17609.17;105209;1267;62138;-54
2024/01/05 04:07:15;;;;;;;11.50;6.50;;;;;;;-147.86;100.00;-17609.17;105206;1267;71373;-53
2024/01/05 04:09:42;;;;;;;11.60;6.40;;;;;;;-147.86;100.00;-17609.17;105098;1261;207364;-54
2024/01/05 04:12:11;;;;;;;9.60;6.70;;;;;;;-147.86;100.00;-17609.17;105273;1265;59317;-55
2024/01/05 04:14:39;;;;;;;11.60;6.70;;;;;;;-147.86;100.00;-17609.17;105271;1261;70938;-54
2024/01/05 04:17:07;;;;;;;9.60;6.10;;;;;;;-147.86;100.00;-17609.17;105293;1265;64316;-54
2024/01/05 04:19:35;;;;;;;10.40;5.70;;;;;;;-147.86;100.00;-17609.17;105286;1266;72653;-52
2024/01/05 04:22:07;;;;;;;8.20;5.70;;;;;;;-147.86;100.00;-17609.17;105248;1265;60401;-56
2024/01/05 04:24:34;;;;;;;9.40;5.70;;;;;;;-147.86;100.00;-17609.17;105220;1261;59746;-54
2024/01/05 04:27:03;;;;;;;9.50;5.70;;;;;;;-147.86;100.00;-17609.17;105307;1265;71806;-52
2024/01/05 04:29:30;;;;;;;9.70;6.40;;;;;;;-147.86;100.00;-17609.17;105298;1266;63392;-55
2024/01/05 04:31:58;;;;;;;8.20;5.60;;;;;;;-147.86;100.00;-17609.17;105258;1265;71764;-52
2024/01/05 04:34:26;;;;;;;7.70;5.30;;;;;;;-147.86;100.00;-17609.17;105264;1261;61613;-53
2024/01/05 04:36:55;;;;;;;8.50;4.80;;;;;;;-147.86;100.00;-17609.17;105352;1264;59659;-54
2024/01/05 04:39:22;;;;;;;8.90;4.90;;;;;;;-147.86;100.00;-17609.17;105249;1264;72084;-55
2024/01/05 04:41:51;;;;;;;5.30;4.30;;;;;;;-147.86;100.00;-17609.17;105264;1266;63119;-51
2024/01/05 04:44:19;;;;;;;8.70;5.30;;;;;;;-147.86;100.00;-17609.17;105248;1260;71389;-59
2024/01/05 04:46:47;;;;;;;6.60;4.90;;;;;;;-147.86;100.00;-17609.17;105272;1264;60031;-58
2024/01/05 04:49:15;;;;;;;6.20;4.60;;;;;;;-147.86;100.00;-17609.17;105277;1266;59542;-54
2024/01/05 04:51:43;;;;;;;5.80;4.50;;;;;;;-147.86;100.00;-17609.17;105207;1266;71803;-53
2024/01/05 04:54:12;;;;;;;5.10;4.30;;;;;;;-147.86;100.00;-17609.17;105210;1260;63244;-52
2024/01/05 04:56:40;;;;;;;5.20;4.00;;;;;;;-147.86;100.00;-17609.17;105210;1265;71360;-52
2024/01/05 04:59:07;;;;;;;4.30;3.80;;;;;;;-147.86;100.00;-17609.17;105227;1267;60706;-50
2024/01/05 05:01:35;;;;;;;5.50;4.10;;;;;;;-147.86;100.00;-17609.17;105193;1260;59523;-51
2024/01/05 05:04:03;;;;;;;4.90;3.90;;;;;;;-147.86;100.00;-17609.17;105235;1269;71812;-53
2024/01/05 05:06:31;;;;;;;5.30;4.20;;;;;;;-147.86;100.00;-17609.17;105507;1262;62208;-50
2024/01/05 05:08:59;;;;;;;6.40;3.60;;;;;;;-147.86;100.00;-17609.17;105488;1261;71396;-52
2024/01/05 05:11:27;;;;;;;5.40;4.20;;;;;;;-147.86;100.00;-17609.17;105464;1261;61632;-52
2024/01/05 05:13:55;;;;;;;5.00;3.70;;;;;;;-147.86;100.00;-17609.17;105479;1258;60516;-54
2024/01/05 05:16:22;;;;;;;4.40;3.60;;;;;;;-147.86;100.00;-17609.17;105457;1264;72275;-53
2024/01/05 05:18:50;;;;;;;5.60;4.10;;;;;;;-147.86;100.00;-17609.17;105508;1258;63513;-51
2024/01/05 05:21:18;;;;;;;5.50;4.00;;;;;;;-147.86;100.00;-17609.17;105457;1261;71355;-49
2024/01/05 05:23:46;;;;;;;6.70;4.30;;;;;;;-147.86;100.00;-17609.17;105452;1265;60406;-52
2024/01/05 05:26:13;;;;;;;9.50;4.20;;;;;;;-147.86;100.00;-17609.17;105476;1257;59744;-51
2024/01/05 05:28:41;;;;;;;4.50;3.90;;;;;;;-147.86;100.00;-17609.17;105600;1257;71797;-53
2024/01/05 05:31:09;;;;;;;7.90;3.60;;;;;;;-147.86;100.00;-17609.17;105586;1260;63127;-54
2024/01/05 05:55:12;;;;;;;5.10;3.80;;;;;;;-147.86;100.00;-17609.17;102675;1294;601026;-52
2024/01/05 05:57:41;;;;;;;7.10;4.00;;;;;;;-147.86;100.00;-17609.17;105066;1267;60451;-48
2024/01/05 06:00:11;;;;;;;4.90;3.50;;;;;;;-147.86;100.00;-17609.17;104857;1264;59958;-51
2024/01/05 06:02:38;;;;;;;6.70;3.60;;;;;;;-147.86;100.00;-17609.17;104842;1266;70973;-52
2024/01/05 06:05:07;;;;;;;5.90;3.70;;;;;;;-147.86;100.00;-17609.17;104833;1266;63205;-52
2024/01/05 06:07:35;;;;;;;4.70;3.80;;;;;;;-147.86;100.00;-17609.17;104843;1271;72630;-49
2024/01/05 06:10:05;;;;;;;5.10;4.00;;;;;;;-147.86;100.00;-17609.17;104967;1267;255670;-51
2024/01/05 06:12:32;;;;;;;5.60;3.80;;;;;;;-147.86;100.00;-17609.17;105150;1268;59279;-48
2024/01/05 06:15:00;;;;;;;5.20;3.60;;;;;;;-147.86;100.00;-17609.17;105167;1263;72215;-52
2024/01/05 06:17:28;;;;;;;5.10;3.50;;;;;;;-147.86;100.00;-17609.17;105126;1264;64506;-51
2024/01/05 06:19:57;;;;;;;7.00;3.80;;;;;;;-147.86;100.00;-17609.17;105140;1268;71380;-53
2024/01/05 06:22:24;;;;;;;4.20;3.40;;;;;;;-147.86;100.00;-17609.17;105922;1251;60636;-52
2024/01/05 06:24:52;;;;;;;5.60;3.80;;;;;;;-147.86;100.00;-17609.17;105848;1251;59997;-52
2024/01/05 06:27:20;;;;;;;7.60;3.80;;;;;;;-147.86;100.00;-17609.17;105872;1251;72259;-54
2024/01/05 06:30:02;;;;;;;4.60;3.60;;;;;;;-147.86;100.00;-17609.17;105563;1251;63141;-53
2024/01/05 06:32:30;;;;;;;8.70;4.20;;;;;;;-147.86;100.00;-17609.17;105735;1253;71427;-53
2024/01/05 06:34:58;;;;;;;4.30;3.50;;;;;;;-147.86;100.00;-17609.17;105780;1257;60408;-54
2024/01/05 06:37:26;;;;;;;4.90;3.60;;;;;;;-147.86;100.00;-17609.17;105912;1251;60121;-55
2024/01/05 06:39:53;;;;;;;3.60;3.30;;;;;;;-147.86;100.00;-17609.17;105895;1257;72064;-54
2024/01/05 06:42:22;;;;;;;4.70;3.60;;;;;;;-147.86;100.00;-17609.17;105886;1251;64453;-55
2024/01/05 06:44:50;;;;;;;4.80;3.70;;;;;;;-147.86;100.00;-17609.17;105883;1257;71658;-54
2024/01/05 06:47:18;;;;;;;7.80;4.10;;;;;;;-147.86;100.00;-17609.17;105925;1253;61664;-49
2024/01/05 06:49:45;;;;;;;5.20;3.70;;;;;;;-147.86;100.00;-17609.17;105857;1253;59609;-52
2024/01/05 06:52:14;;;;;;;4.20;3.80;;;;;;;-147.86;100.00;-17609.17;105718;1251;71712;-52
2024/01/05 06:54:41;;;;;;;4.70;3.70;;;;;;;-147.86;100.00;-17609.17;105686;1257;64349;-52
2024/01/05 06:57:09;;;;;;;5.00;4.40;;;;;;;-147.86;100.00;-17609.17;105699;1253;70649;-53
2024/01/05 06:59:39;;;;;;;5.20;3.90;;;;;;;-147.86;100.00;-17609.17;105706;1255;60379;-52
2024/01/05 07:02:07;;;;;;;4.50;4.00;;;;;;;-147.86;100.00;-17609.17;105773;1257;59536;-54
2024/01/05 07:04:35;;;;;;;5.10;4.00;;;;;;;-147.86;100.00;-17609.17;105753;1251;71950;-52
2024/01/05 07:07:03;;;;;;;5.60;4.20;;;;;;;-147.86;100.00;-17609.17;105694;1251;64455;-54
2024/01/05 07:09:31;;;;;;;5.20;4.40;;;;;;;-147.86;100.00;-17609.17;105734;1257;72598;-51
2024/01/05 12:42:54;;;;;;;7.90;4.00;;;;;;;-147.86;100.00;-17609.17;102722;1292;601151;-52
2024/01/05 12:45:25;;;;;;;6.90;4.80;;;;;;;-147.86;100.00;-17609.17;105049;1266;64082;-52
2024/01/05 12:47:53;;;;;;;6.30;4.80;;;;;;;-147.86;100.00;-17609.17;104888;1266;59849;-53
2024/01/05 12:50:25;;;;;;;3.10;2.70;;;;;;;-147.86;100.00;-17609.17;104880;1265;73199;-51
2024/01/05 12:52:53;;;;;;;3.70;3.30;;;;;;;-147.86;100.00;-17609.17;104872;1265;63740;-52
2024/01/05 12:55:27;;;;;;;6.50;4.10;;;;;;;-147.86;100.00;-17609.17;104700;1266;202126;-52
2024/01/05 12:58:04;;;;;;;4.10;3.60;;;;;;;-147.86;100.00;-17609.17;105154;1268;60624;-54
2024/01/05 13:00:40;;;;;;;3.30;2.90;;;;;;;-147.86;100.00;-17609.17;105199;1266;59312;-54
2024/01/05 13:03:14;;;;;;;3.60;3.20;;;;;;;-147.86;100.00;-17609.17;105167;1268;74017;-54
2024/01/05 13:05:42;;;;;;;4.90;3.80;;;;;;;-147.86;100.00;-17609.17;105173;1263;64177;-52
2024/01/05 13:08:11;;;;;;;5.60;3.40;;;;;;;-147.86;100.00;-17609.17;105218;1263;72578;-54
2024/01/05 13:10:39;;;;;;;5.90;3.80;;;;;;;-147.86;100.00;-17609.17;105174;1269;60381;-54
2024/01/05 13:13:07;;;;;;;5.70;4.10;;;;;;;-147.86;100.00;-17609.17;105148;1263;62289;-53
2024/01/05 13:15:35;;;;;;;5.00;4.20;;;;;;;-147.86;100.00;-17609.17;105156;1263;74142;-55
2024/01/05 13:18:03;;;;;;;6.50;5.10;;;;;;;-147.86;100.00;-17609.17;105174;1269;66741;-55
2024/01/05 13:20:32;;;;;;;4.80;4.30;;;;;;;-147.86;100.00;-17609.17;105637;1257;72896;-54
2024/01/05 13:22:59;;;;;;;6.10;4.30;;;;;;;-147.86;100.00;-17609.17;105581;1257;60471;-54
2024/01/05 13:25:27;;;;;;;7.80;3.90;;;;;;;-147.86;100.00;-17609.17;105573;1256;59823;-55
2024/01/05 13:27:55;;;;;;;4.40;4.00;;;;;;;-147.86;100.00;-17609.17;105628;1257;73092;-54
2024/01/05 13:30:23;;;;;;;4.80;4.30;;;;;;;-147.86;100.00;-17609.17;105679;1260;66425;-54
2024/01/05 13:32:52;;;;;;;3.90;3.60;;;;;;;-147.86;100.00;-17609.17;105573;1257;70449;-54
2024/01/05 13:35:20;;;;;;;3.80;3.40;;;;;;;-147.86;100.00;-17609.17;105629;1261;60687;-52
2024/01/05 13:37:48;;;;;;;3.90;3.20;;;;;;;-147.86;100.00;-17609.17;105656;1259;62502;-53
2024/01/05 13:40:16;;;;;;;3.90;3.50;;;;;;;-147.86;100.00;-17609.17;105570;1257;73218;-54
2024/01/05 13:42:44;;;;;;;3.30;2.80;;;;;;;-147.86;100.00;-17609.17;105597;1261;63113;-55
2024/01/05 13:45:13;;;;;;;3.90;3.30;;;;;;;-147.86;100.00;-17609.17;105840;1256;71403;-53
2024/01/05 13:47:40;;;;;;;3.00;2.80;;;;;;;-147.86;100.00;-17609.17;105837;1251;61525;-54
2024/01/05 13:50:08;;;;;;;3.50;3.00;;;;;;;-147.86;100.00;-17609.17;105919;1256;59688;-52
2024/01/05 13:52:36;;;;;;;3.30;3.00;;;;;;;-147.86;100.00;-17609.17;105894;1252;73913;-54
2024/01/05 13:55:04;;;;;;;2.90;2.70;;;;;;;-147.86;100.00;-17609.17;105864;1257;64260;-53
2024/01/05 13:57:32;;;;;;;3.00;2.80;;;;;;;-147.86;100.00;-17609.17;105896;1258;73329;-55
2024/01/05 14:00:00;;;;;;;3.50;2.90;;;;;;;-147.86;100.00;-17609.17;105863;1256;63897;-53
2024/01/05 14:02:34;;;;;;;2.70;2.20;;;;;;;-147.86;100.00;-17609.17;105849;1252;59541;-58
2024/01/05 14:05:04;;;;;;;2.50;1.90;;;;;;;-147.86;100.00;-17609.17;105843;1254;74112;-52
2024/01/05 14:07:32;;;;;;;3.70;2.50;;;;;;;-147.86;100.00;-17609.17;105666;1257;63673;-52
2024/01/05 14:10:02;;;;;;;1.40;1.30;;;;;;;-147.86;100.00;-17609.17;105733;1256;74749;-51
2024/01/05 14:12:31;;;;;;;1.80;1.70;;;;;;;-147.86;100.00;-17609.17;105809;1259;62750;-55
2024/01/05 14:14:59;;;;;;;3.40;2.80;;;;;;;-147.86;100.00;-17609.17;105871;1257;60104;-55
2024/01/05 14:17:28;;;;;;;5.30;2.40;;;;;;;-147.86;100.00;-17609.17;105910;1257;73884;-54
2024/01/05 14:19:56;;;;;;;3.00;2.40;;;;;;;-147.86;100.00;-17609.17;105885;1256;64872;-59
2024/01/05 14:22:24;;;;;;;3.30;2.70;;;;;;;-147.86;100.00;-17609.17;105872;1254;74685;-56
2024/01/05 14:24:52;;;;;;;3.20;2.50;;;;;;;-147.86;100.00;-17609.17;105882;1254;59727;-55
2024/01/05 14:27:20;;;;;;;3.10;2.70;;;;;;;-147.86;100.00;-17609.17;105907;1255;59625;-54
2024/01/05 14:29:48;;;;;;;3.00;2.80;;;;;;;-147.86;100.00;-17609.17;105848;1256;73026;-53
2024/01/05 14:32:16;;;;;;;5.00;2.80;;;;;;;-147.86;100.00;-17609.17;105726;1259;63157;-52
2024/01/05 14:34:44;;;;;;;3.20;2.90;;;;;;;-147.86;100.00;-17609.17;105872;1257;71439;-53
2024/01/05 14:37:13;;;;;;;4.50;3.30;;;;;;;-147.86;100.00;-17609.17;105871;1259;62287;-54
2024/01/05 14:39:41;;;;;;;4.40;2.80;;;;;;;-147.86;100.00;-17609.17;105906;1254;61646;-51
2024/01/05 14:42:09;;;;;;;5.00;3.50;;;;;;;-147.86;100.00;-17609.17;105719;1254;71829;-51
2024/01/05 14:44:37;;;;;;;5.00;3.60;;;;;;;-147.86;100.00;-17609.17;105844;1256;66731;-54
2024/01/05 14:47:05;;;;;;;3.80;3.40;;;;;;;-147.86;100.00;-17609.17;105857;1267;72558;-52
2024/01/05 14:49:34;;;;;;;5.90;2.60;;;;;;;-147.86;100.00;-17609.17;105925;1257;61751;-50
2024/01/05 14:52:02;;;;;;;6.20;4.10;;;;;;;-147.86;100.00;-17609.17;105926;1253;60374;-53
2024/01/05 14:54:30;;;;;;;6.50;4.30;;;;;;;-147.86;100.00;-17609.17;105837;1253;72643;-54
2024/01/05 14:56:59;;;;;;;5.60;4.20;;;;;;;-147.86;100.00;-17609.17;105863;1257;64521;-54
2024/01/05 14:59:27;;;;;;;6.50;4.50;;;;;;;-147.86;100.00;-17609.17;105879;1254;71577;-53
2024/01/05 15:01:57;;;;;;;7.10;4.60;;;;;;;-147.86;100.00;-17609.17;105839;1258;61918;-52
2024/01/05 15:04:25;;;;;;;6.00;4.10;;;;;;;-147.86;100.00;-17609.17;105882;1257;59630;-55
2024/01/05 15:06:57;;;;;;;6.60;4.80;;;;;;;-147.86;100.00;-17609.17;105874;1253;75327;-53
2024/01/05 15:09:26;;;;;;;10.00;5.20;;;;;;;-147.86;100.00;-17609.17;105873;1254;63710;-51
2024/01/05 15:11:54;;;;;;;5.70;4.00;;;;;;;-147.86;100.00;-17609.17;105916;1256;74873;-54
2024/01/05 15:14:22;;;;;;;12.00;5.40;;;;;;;-147.86;100.00;-17609.17;105846;1257;61381;-53
2024/01/05 15:16:50;;;;;;;10.50;6.00;;;;;;;-147.86;100.00;-17609.17;105856;1257;60034;-53
2024/01/05 15:19:18;;;;;;;12.70;7.20;;;;;;;-147.86;100.00;-17609.17;105897;1251;75067;-51
2024/01/05 15:21:46;;;;;;;13.80;7.00;;;;;;;-147.86;100.00;-17609.17;105897;1257;64272;-53
2024/01/05 15:55:33;;;;;;;12.30;6.30;;;;;;;-147.86;100.00;-17609.17;102806;1291;600057;-50
2024/01/05 15:58:07;;;;;;;12.50;6.60;;;;;;;-147.86;100.00;-17609.17;105002;1269;60298;-51
2024/01/05 16:00:35;;;;;;;10.50;6.00;;;;;;;-147.86;100.00;-17609.17;105060;1264;59919;-53
2024/01/05 16:03:03;;;;;;;12.00;6.20;;;;;;;-147.86;100.00;-17609.17;105082;1264;71019;-52
2024/01/05 16:05:31;;;;;;;8.90;5.30;;;;;;;-147.86;100.00;-17609.17;105146;1270;65180;-53
2024/01/05 16:08:00;;;;;;;13.80;6.20;;;;;;;-147.86;100.00;-17609.17;104825;1264;282468;-52
2024/01/05 16:10:28;;;;;;;12.10;7.10;;;;;;;-147.86;100.00;-17609.17;105286;1267;60824;-54
2024/01/05 16:12:55;;;;;;;12.40;8.60;;;;;;;-147.86;100.00;-17609.17;105239;1267;59957;-52
2024/01/05 16:15:23;;;;;;;11.70;7.80;;;;;;;-147.86;100.00;-17609.17;105205;1264;72089;-53
2024/01/05 16:17:52;;;;;;;12.10;7.60;;;;;;;-147.86;100.00;-17609.17;105239;1267;64090;-52
2024/01/05 16:20:20;;;;;;;13.50;7.80;;;;;;;-147.86;100.00;-17609.17;105152;1266;72913;-53
2024/01/05 16:22:48;;;;;;;11.10;7.50;;;;;;;-147.86;100.00;-17609.17;105206;1267;61115;-51
2024/01/05 16:25:16;;;;;;;10.70;7.10;;;;;;;-147.86;100.00;-17609.17;105191;1264;59545;-49
2024/01/05 16:27:44;;;;;;;12.70;8.20;;;;;;;-147.86;100.00;-17609.17;105235;1267;73009;-53
2024/01/05 16:30:13;;;;;;;14.70;7.90;;;;;;;-147.86;100.00;-17609.17;105226;1267;64891;-52
2024/01/05 16:32:42;;;;;;;11.50;6.60;;;;;;;-147.86;100.00;-17609.17;105238;1268;72431;-49
2024/01/05 16:35:10;;;;;;;13.00;7.90;;;;;;;-147.86;100.00;-17609.17;105201;1268;60834;-51
2024/01/05 16:37:38;;;;;;;12.90;8.10;;;;;;;-147.86;100.00;-17609.17;105188;1265;61097;-53
2024/01/05 16:40:07;;;;;;;11.40;6.70;;;;;;;-147.86;100.00;-17609.17;105162;1267;72182;-52
2024/01/05 16:42:34;;;;;;;11.50;7.40;;;;;;;-147.86;100.00;-17609.17;105201;1264;63020;-50
2024/01/05 16:45:03;;;;;;;13.00;8.50;;;;;;;-147.86;100.00;-17609.17;105198;1264;72843;-50
2024/01/05 16:47:31;;;;;;;14.70;7.90;;;;;;;-147.86;100.00;-17609.17;105255;1264;59740;-50
2024/01/05 16:49:59;;;;;;;13.20;8.40;;;;;;;-147.86;100.00;-17609.17;105207;1267;60305;-52
2024/01/05 16:52:27;;;;;;;12.00;8.30;;;;;;;-147.86;100.00;-17609.17;105218;1264;75540;-48
2024/01/05 16:54:55;;;;;;;22.30;9.50;;;;;;;-147.86;100.00;-17609.17;105206;1264;63235;-51
2024/01/05 16:57:23;;;;;;;18.30;9.70;;;;;;;-147.86;100.00;-17609.17;105214;1264;74692;-51
2024/01/05 16:59:51;;;;;;;13.40;9.10;;;;;;;-147.86;100.00;-17609.17;105173;1263;60794;-53
2024/01/05 17:02:20;;;;;;;13.50;9.70;;;;;;;-147.86;100.00;-17609.17;105233;1267;59723;-50
2024/01/05 17:04:47;;;;;;;17.60;10.40;;;;;;;-147.86;100.00;-17609.17;105233;1264;72953;-51
2024/01/05 17:07:16;;;;;;;15.30;9.10;;;;;;;-147.86;100.00;-17609.17;105618;1257;64777;-49
2024/01/05 17:09:45;;;;;;;15.00;9.40;;;;;;;-147.86;100.00;-17609.17;105634;1260;71425;-50
2024/01/05 17:12:14;;;;;;;16.10;9.50;;;;;;;-147.86;100.00;-17609.17;105614;1258;63421;-49
2024/01/05 17:14:43;;;;;;;15.50;8.90;;;;;;;-147.86;100.00;-17609.17;105662;1260;59787;-50
2024/01/05 17:17:11;;;;;;;15.80;10.30;;;;;;;-147.86;100.00;-17609.17;105623;1260;72439;-49
2024/01/05 17:19:39;;;;;;;16.80;9.70;;;;;;;-147.86;100.00;-17609.17;105653;1255;65277;-49
2024/01/05 17:22:10;;;;;;;16.90;10.20;;;;;;;-147.86;100.00;-17609.17;105681;1260;74638;-53
2024/01/05 17:24:38;;;;;;;18.20;10.50;;;;;;;-147.86;100.00;-17609.17;105600;1257;59665;-50
2024/01/05 17:27:06;;;;;;;16.70;11.20;;;;;;;-147.86;100.00;-17609.17;105642;1260;59611;-49
2024/01/05 17:29:35;;;;;;;21.30;11.10;;;;;;;-147.86;100.00;-17609.17;105616;1260;72847;-52
2024/01/05 17:32:04;;;;;;;17.80;10.80;;;;;;;-147.86;100.00;-17609.17;105259;1257;66320;-52
2024/01/05 17:34:32;;;;;;;15.70;10.30;;;;;;;-147.86;100.00;-17609.17;105526;1257;71959;-52
2024/01/05 17:37:00;;;;;;;17.90;10.30;;;;;;;-147.86;100.00;-17609.17;105608;1260;59682;-51